sensor_id;sensor_type;location;lat;lon;timestamp;pressure;altitude;pressure_sealevel;temperature;humidity
39954;BME280;25631;51.516;-0.470;2022-07-23T00:02:30;101678.08;;;17.63;38.22
39954;BME280;25631;51.516;-0.470;2022-07-23T00:05:07;101678.72;;;17.85;38.16
39954;BME280;25631;51.516;-0.470;2022-07-23T00:07:44;101680.56;;;17.57;38.15
39954;BME280;25631;51.516;-0.470;2022-07-23T00:10:20;101685.28;;;17.74;38.21
39954;BME280;25631;51.516;-0.470;2022-07-23T00:12:57;101689.29;;;17.87;38.23
39954;BME280;25631;51.516;-0.470;2022-07-23T00:15:33;101693.97;;;17.72;38.29
39954;BME280;25631;51.516;-0.470;2022-07-23T00:18:10;101689.48;;;17.38;38.38
39954;BME280;25631;51.516;-0.470;2022-07-23T00:20:47;101690.12;;;17.84;38.38
39954;BME280;25631;51.516;-0.470;2022-07-23T00:23:23;101687.76;;;17.56;38.45
39954;BME280;25631;51.516;-0.470;2022-07-23T00:26:00;101684.89;;;17.49;38.49
39954;BME280;25631;51.516;-0.470;2022-07-23T00:28:36;101686.44;;;17.54;38.56
39954;BME280;25631;51.516;-0.470;2022-07-23T00:31:13;101688.61;;;17.50;38.58
39954;BME280;25631;51.516;-0.470;2022-07-23T00:33:49;101690.05;;;17.35;38.63
39954;BME280;25631;51.516;-0.470;2022-07-23T00:36:25;101688.70;;;17.57;38.66
39954;BME280;25631;51.516;-0.470;2022-07-23T00:39:02;101687.92;;;17.38;38.63
39954;BME280;25631;51.516;-0.470;2022-07-23T00:41:38;101684.28;;;17.61;38.60
39954;BME280;25631;51.516;-0.470;2022-07-23T00:44:16;101684.04;;;17.52;38.56
39954;BME280;25631;51.516;-0.470;2022-07-23T00:46:54;101684.19;;;17.49;38.62
39954;BME280;25631;51.516;-0.470;2022-07-23T00:49:31;101682.53;;;17.56;38.70
39954;BME280;25631;51.516;-0.470;2022-07-23T00:52:08;101681.97;;;17.43;38.74
39954;BME280;25631;51.516;-0.470;2022-07-23T00:54:45;101681.32;;;17.53;38.77
39954;BME280;25631;51.516;-0.470;2022-07-23T00:57:21;101675.53;;;17.35;38.79
39954;BME280;25631;51.516;-0.470;2022-07-23T00:59:58;101676.20;;;17.89;38.75
39954;BME280;25631;51.516;-0.470;2022-07-23T01:02:34;101676.17;;;17.71;38.79
39954;BME280;25631;51.516;-0.470;2022-07-23T01:05:11;101678.02;;;17.55;38.80
39954;BME280;25631;51.516;-0.470;2022-07-23T01:07:48;101679.33;;;17.69;38.81
39954;BME280;25631;51.516;-0.470;2022-07-23T01:10:25;101678.48;;;17.86;38.75
39954;BME280;25631;51.516;-0.470;2022-07-23T01:13:04;101681.11;;;17.59;38.79
39954;BME280;25631;51.516;-0.470;2022-07-23T01:15:41;101674.97;;;17.62;38.77
39954;BME280;25631;51.516;-0.470;2022-07-23T01:18:17;101672.79;;;17.83;38.81
39954;BME280;25631;51.516;-0.470;2022-07-23T01:20:54;101672.71;;;17.45;38.86
39954;BME280;25631;51.516;-0.470;2022-07-23T01:23:30;101669.12;;;17.57;38.83
39954;BME280;25631;51.516;-0.470;2022-07-23T01:26:07;101666.02;;;17.77;38.87
39954;BME280;25631;51.516;-0.470;2022-07-23T01:28:43;101660.91;;;17.52;38.87
39954;BME280;25631;51.516;-0.470;2022-07-23T01:31:20;101656.11;;;17.44;38.85
39954;BME280;25631;51.516;-0.470;2022-07-23T01:33:56;101658.47;;;17.55;38.81
39954;BME280;25631;51.516;-0.470;2022-07-23T01:36:33;101665.42;;;17.71;38.88
39954;BME280;25631;51.516;-0.470;2022-07-23T01:39:10;101665.23;;;17.72;38.88
39954;BME280;25631;51.516;-0.470;2022-07-23T01:41:46;101669.70;;;17.54;38.92
39954;BME280;25631;51.516;-0.470;2022-07-23T01:44:22;101670.49;;;17.69;38.94
39954;BME280;25631;51.516;-0.470;2022-07-23T01:46:59;101670.92;;;17.39;38.93
39954;BME280;25631;51.516;-0.470;2022-07-23T01:49:35;101667.73;;;17.55;39.02
39954;BME280;25631;51.516;-0.470;2022-07-23T01:52:12;101663.36;;;17.37;39.07
39954;BME280;25631;51.516;-0.470;2022-07-23T01:54:48;101662.19;;;17.46;39.07
39954;BME280;25631;51.516;-0.470;2022-07-23T01:57:24;101657.66;;;17.50;39.21
39954;BME280;25631;51.516;-0.470;2022-07-23T02:00:01;101659.55;;;17.26;39.19
39954;BME280;25631;51.516;-0.470;2022-07-23T02:02:37;101662.67;;;17.45;39.23
39954;BME280;25631;51.516;-0.470;2022-07-23T02:05:14;101666.34;;;17.47;39.31
39954;BME280;25631;51.516;-0.470;2022-07-23T02:07:51;101666.31;;;17.48;39.30
39954;BME280;25631;51.516;-0.470;2022-07-23T02:10:28;101667.65;;;17.22;39.28
39954;BME280;25631;51.516;-0.470;2022-07-23T02:13:04;101669.13;;;17.45;39.40
39954;BME280;25631;51.516;-0.470;2022-07-23T02:15:41;101669.37;;;17.39;39.35
39954;BME280;25631;51.516;-0.470;2022-07-23T02:18:17;101668.48;;;17.49;39.36
39954;BME280;25631;51.516;-0.470;2022-07-23T02:20:54;101667.60;;;17.47;39.37
39954;BME280;25631;51.516;-0.470;2022-07-23T02:23:30;101668.30;;;17.25;39.41
39954;BME280;25631;51.516;-0.470;2022-07-23T02:26:06;101666.11;;;17.10;39.48
39954;BME280;25631;51.516;-0.470;2022-07-23T02:28:43;101666.20;;;17.41;39.49
39954;BME280;25631;51.516;-0.470;2022-07-23T02:31:19;101668.64;;;17.28;39.49
39954;BME280;25631;51.516;-0.470;2022-07-23T02:33:56;101667.49;;;17.43;39.58
39954;BME280;25631;51.516;-0.470;2022-07-23T02:36:33;101665.99;;;17.27;39.64
39954;BME280;25631;51.516;-0.470;2022-07-23T02:39:09;101665.69;;;17.08;39.65
39954;BME280;25631;51.516;-0.470;2022-07-23T02:41:46;101666.57;;;17.41;39.68
39954;BME280;25631;51.516;-0.470;2022-07-23T02:44:22;101671.18;;;17.17;39.76
39954;BME280;25631;51.516;-0.470;2022-07-23T02:46:59;101670.18;;;17.05;39.84
39954;BME280;25631;51.516;-0.470;2022-07-23T02:49:35;101672.75;;;17.46;39.89
39954;BME280;25631;51.516;-0.470;2022-07-23T02:52:11;101671.55;;;17.28;40.01
39954;BME280;25631;51.516;-0.470;2022-07-23T02:54:48;101669.28;;;17.14;39.98
39954;BME280;25631;51.516;-0.470;2022-07-23T02:57:24;101667.67;;;16.92;40.04
39954;BME280;25631;51.516;-0.470;2022-07-23T03:00:01;101668.73;;;17.60;39.96
39954;BME280;25631;51.516;-0.470;2022-07-23T03:02:37;101669.32;;;17.23;40.12
39954;BME280;25631;51.516;-0.470;2022-07-23T03:05:14;101670.71;;;17.38;40.10
39954;BME280;25631;51.516;-0.470;2022-07-23T03:07:50;101667.30;;;16.99;40.14
39954;BME280;25631;51.516;-0.470;2022-07-23T03:10:26;101664.68;;;17.30;40.27
39954;BME280;25631;51.516;-0.470;2022-07-23T03:13:03;101663.72;;;16.94;40.31
39954;BME280;25631;51.516;-0.470;2022-07-23T03:15:39;101668.10;;;17.26;40.31
39954;BME280;25631;51.516;-0.470;2022-07-23T03:18:16;101665.09;;;17.27;40.30
39954;BME280;25631;51.516;-0.470;2022-07-23T03:20:52;101665.50;;;17.12;40.39
39954;BME280;25631;51.516;-0.470;2022-07-23T03:23:29;101663.75;;;17.34;40.50
39954;BME280;25631;51.516;-0.470;2022-07-23T03:26:05;101661.30;;;17.44;40.52
39954;BME280;25631;51.516;-0.470;2022-07-23T03:28:42;101654.24;;;17.04;40.70
39954;BME280;25631;51.516;-0.470;2022-07-23T03:31:18;101652.18;;;17.32;40.73
39954;BME280;25631;51.516;-0.470;2022-07-23T03:33:54;101654.79;;;17.20;40.78
39954;BME280;25631;51.516;-0.470;2022-07-23T03:36:31;101653.28;;;16.94;40.86
39954;BME280;25631;51.516;-0.470;2022-07-23T03:39:07;101655.53;;;16.91;40.92
39954;BME280;25631;51.516;-0.470;2022-07-23T03:41:44;101652.64;;;17.08;40.96
39954;BME280;25631;51.516;-0.470;2022-07-23T03:44:20;101652.14;;;16.71;40.92
39954;BME280;25631;51.516;-0.470;2022-07-23T03:46:57;101650.32;;;17.31;40.93
39954;BME280;25631;51.516;-0.470;2022-07-23T03:49:33;101651.41;;;17.04;40.85
39954;BME280;25631;51.516;-0.470;2022-07-23T03:52:10;101653.25;;;17.23;40.88
39954;BME280;25631;51.516;-0.470;2022-07-23T03:54:46;101652.66;;;17.11;40.89
39954;BME280;25631;51.516;-0.470;2022-07-23T03:57:23;101652.00;;;16.96;40.94
39954;BME280;25631;51.516;-0.470;2022-07-23T03:59:59;101654.33;;;16.82;40.96
39954;BME280;25631;51.516;-0.470;2022-07-23T04:02:35;101659.07;;;17.07;41.02
39954;BME280;25631;51.516;-0.470;2022-07-23T04:05:12;101658.14;;;17.00;41.08
39954;BME280;25631;51.516;-0.470;2022-07-23T04:07:48;101660.30;;;16.76;41.12
39954;BME280;25631;51.516;-0.470;2022-07-23T04:10:24;101661.87;;;16.94;41.16
39954;BME280;25631;51.516;-0.470;2022-07-23T04:13:01;101662.77;;;17.04;41.28
39954;BME280;25631;51.516;-0.470;2022-07-23T04:15:37;101661.15;;;16.83;41.41
39954;BME280;25631;51.516;-0.470;2022-07-23T04:18:14;101657.04;;;16.63;41.32
39954;BME280;25631;51.516;-0.470;2022-07-23T04:20:51;101657.93;;;16.82;41.33
39954;BME280;25631;51.516;-0.470;2022-07-23T04:23:28;101656.84;;;16.63;41.31
39954;BME280;25631;51.516;-0.470;2022-07-23T04:26:05;101659.96;;;16.84;41.27
39954;BME280;25631;51.516;-0.470;2022-07-23T04:28:41;101660.00;;;16.89;41.34
39954;BME280;25631;51.516;-0.470;2022-07-23T04:31:17;101660.91;;;16.83;41.49
39954;BME280;25631;51.516;-0.470;2022-07-23T04:33:54;101657.12;;;16.76;41.58
39954;BME280;25631;51.516;-0.470;2022-07-23T04:36:30;101657.77;;;16.71;41.94
39954;BME280;25631;51.516;-0.470;2022-07-23T04:39:07;101659.69;;;16.60;42.18
39954;BME280;25631;51.516;-0.470;2022-07-23T04:41:43;101657.09;;;16.57;42.28
39954;BME280;25631;51.516;-0.470;2022-07-23T04:44:20;101657.35;;;16.59;42.51
39954;BME280;25631;51.516;-0.470;2022-07-23T04:46:56;101655.83;;;16.35;42.64
39954;BME280;25631;51.516;-0.470;2022-07-23T04:49:32;101655.07;;;16.37;42.80
39954;BME280;25631;51.516;-0.470;2022-07-23T04:52:09;101655.92;;;16.26;43.03
39954;BME280;25631;51.516;-0.470;2022-07-23T04:54:45;101662.20;;;16.18;43.19
39954;BME280;25631;51.516;-0.470;2022-07-23T04:57:21;101662.40;;;16.07;43.53
39954;BME280;25631;51.516;-0.470;2022-07-23T04:59:58;101664.73;;;15.82;43.76
39954;BME280;25631;51.516;-0.470;2022-07-23T05:02:34;101671.67;;;15.85;43.91
39954;BME280;25631;51.516;-0.470;2022-07-23T05:05:10;101675.88;;;15.89;43.82
39954;BME280;25631;51.516;-0.470;2022-07-23T05:07:47;101672.92;;;15.67;43.90
39954;BME280;25631;51.516;-0.470;2022-07-23T05:10:23;101678.04;;;15.97;43.86
39954;BME280;25631;51.516;-0.470;2022-07-23T05:13:00;101679.56;;;15.81;43.89
39954;BME280;25631;51.516;-0.470;2022-07-23T05:15:36;101684.18;;;15.96;43.90
39954;BME280;25631;51.516;-0.470;2022-07-23T05:18:13;101685.73;;;16.09;43.85
39954;BME280;25631;51.516;-0.470;2022-07-23T05:20:50;101686.91;;;15.95;43.81
39954;BME280;25631;51.516;-0.470;2022-07-23T05:23:26;101681.24;;;15.92;43.94
39954;BME280;25631;51.516;-0.470;2022-07-23T05:26:02;101676.03;;;16.07;43.99
39954;BME280;25631;51.516;-0.470;2022-07-23T05:28:39;101677.00;;;16.26;43.77
39954;BME280;25631;51.516;-0.470;2022-07-23T05:31:15;101677.97;;;16.20;43.90
39954;BME280;25631;51.516;-0.470;2022-07-23T05:33:52;101678.88;;;16.28;44.02
39954;BME280;25631;51.516;-0.470;2022-07-23T05:36:28;101678.38;;;16.13;44.34
39954;BME280;25631;51.516;-0.470;2022-07-23T05:39:05;101681.16;;;16.10;44.31
39954;BME280;25631;51.516;-0.470;2022-07-23T05:41:41;101684.96;;;16.09;44.10
39954;BME280;25631;51.516;-0.470;2022-07-23T05:44:18;101683.60;;;16.26;43.87
39954;BME280;25631;51.516;-0.470;2022-07-23T05:46:54;101682.10;;;16.25;43.97
39954;BME280;25631;51.516;-0.470;2022-07-23T05:49:31;101678.81;;;16.21;43.96
39954;BME280;25631;51.516;-0.470;2022-07-23T05:52:07;101672.69;;;16.07;44.01
39954;BME280;25631;51.516;-0.470;2022-07-23T05:54:44;101671.99;;;16.05;43.95
39954;BME280;25631;51.516;-0.470;2022-07-23T05:57:20;101672.47;;;15.93;43.80
39954;BME280;25631;51.516;-0.470;2022-07-23T05:59:57;101669.14;;;16.08;43.80
39954;BME280;25631;51.516;-0.470;2022-07-23T06:02:33;101672.65;;;15.95;43.75
39954;BME280;25631;51.516;-0.470;2022-07-23T06:05:10;101673.77;;;16.15;43.58
39954;BME280;25631;51.516;-0.470;2022-07-23T06:07:46;101679.07;;;16.13;43.44
39954;BME280;25631;51.516;-0.470;2022-07-23T06:10:23;101683.95;;;16.18;43.24
39954;BME280;25631;51.516;-0.470;2022-07-23T06:13:00;101682.69;;;16.20;43.12
39954;BME280;25631;51.516;-0.470;2022-07-23T06:15:36;101683.14;;;16.39;43.03
39954;BME280;25631;51.516;-0.470;2022-07-23T06:18:13;101688.42;;;16.59;43.06
39954;BME280;25631;51.516;-0.470;2022-07-23T06:20:49;101685.63;;;16.39;43.00
39954;BME280;25631;51.516;-0.470;2022-07-23T06:23:26;101690.23;;;16.47;42.91
39954;BME280;25631;51.516;-0.470;2022-07-23T06:26:02;101691.81;;;16.41;42.94
39954;BME280;25631;51.516;-0.470;2022-07-23T06:28:39;101691.97;;;16.71;42.60
39954;BME280;25631;51.516;-0.470;2022-07-23T06:31:15;101689.01;;;16.69;42.43
39954;BME280;25631;51.516;-0.470;2022-07-23T06:33:51;101690.84;;;17.04;42.23
39954;BME280;25631;51.516;-0.470;2022-07-23T06:36:28;101688.91;;;17.21;42.06
39954;BME280;25631;51.516;-0.470;2022-07-23T06:39:04;101687.56;;;16.90;41.76
39954;BME280;25631;51.516;-0.470;2022-07-23T06:41:41;101689.01;;;16.94;41.54
39954;BME280;25631;51.516;-0.470;2022-07-23T06:44:18;101693.40;;;17.22;41.35
39954;BME280;25631;51.516;-0.470;2022-07-23T06:46:54;101696.00;;;17.23;41.02
39954;BME280;25631;51.516;-0.470;2022-07-23T06:49:30;101704.95;;;17.49;40.80
39954;BME280;25631;51.516;-0.470;2022-07-23T06:52:07;101705.04;;;17.45;40.72
39954;BME280;25631;51.516;-0.470;2022-07-23T06:54:43;101706.07;;;17.21;41.04
39954;BME280;25631;51.516;-0.470;2022-07-23T06:57:20;101701.36;;;17.41;40.86
39954;BME280;25631;51.516;-0.470;2022-07-23T06:59:57;101698.87;;;17.30;40.94
39954;BME280;25631;51.516;-0.470;2022-07-23T07:02:33;101694.37;;;17.18;40.77
39954;BME280;25631;51.516;-0.470;2022-07-23T07:05:10;101693.18;;;17.21;40.76
39954;BME280;25631;51.516;-0.470;2022-07-23T07:07:46;101687.11;;;17.34;40.63
39954;BME280;25631;51.516;-0.470;2022-07-23T07:10:23;101683.52;;;17.58;40.50
39954;BME280;25631;51.516;-0.470;2022-07-23T07:12:59;101677.76;;;17.64;40.32
39954;BME280;25631;51.516;-0.470;2022-07-23T07:15:36;101684.19;;;17.70;40.07
39954;BME280;25631;51.516;-0.470;2022-07-23T07:18:13;101686.22;;;17.62;40.03
39954;BME280;25631;51.516;-0.470;2022-07-23T07:20:49;101694.09;;;17.35;40.06
39954;BME280;25631;51.516;-0.470;2022-07-23T07:23:26;101695.67;;;17.75;39.98
39954;BME280;25631;51.516;-0.470;2022-07-23T07:26:02;101693.35;;;17.82;39.99
39954;BME280;25631;51.516;-0.470;2022-07-23T07:28:39;101701.94;;;17.82;39.72
39954;BME280;25631;51.516;-0.470;2022-07-23T07:31:15;101700.63;;;17.82;39.58
39954;BME280;25631;51.516;-0.470;2022-07-23T07:33:52;101694.94;;;17.83;39.32
39954;BME280;25631;51.516;-0.470;2022-07-23T07:36:29;101696.24;;;17.72;39.43
39954;BME280;25631;51.516;-0.470;2022-07-23T07:39:06;101697.92;;;17.55;39.56
39954;BME280;25631;51.516;-0.470;2022-07-23T07:41:43;101699.03;;;18.13;39.51
39954;BME280;25631;51.516;-0.470;2022-07-23T07:44:20;101700.14;;;17.95;39.40
39954;BME280;25631;51.516;-0.470;2022-07-23T07:46:56;101703.89;;;17.92;39.47
39954;BME280;25631;51.516;-0.470;2022-07-23T07:49:32;101708.34;;;17.84;39.38
39954;BME280;25631;51.516;-0.470;2022-07-23T07:52:09;101697.10;;;18.19;39.35
39954;BME280;25631;51.516;-0.470;2022-07-23T07:54:46;101695.22;;;17.72;39.41
39954;BME280;25631;51.516;-0.470;2022-07-23T07:57:22;101695.99;;;17.66;39.06
39954;BME280;25631;51.516;-0.470;2022-07-23T07:59:58;101696.61;;;18.05;39.05
39954;BME280;25631;51.516;-0.470;2022-07-23T08:02:41;101704.63;;;17.81;38.93
39954;BME280;25631;51.516;-0.470;2022-07-23T08:05:19;101705.54;;;17.85;38.38
39954;BME280;25631;51.516;-0.470;2022-07-23T08:07:58;101713.75;;;17.45;38.59
39954;BME280;25631;51.516;-0.470;2022-07-23T08:10:34;101714.20;;;17.67;38.23
39954;BME280;25631;51.516;-0.470;2022-07-23T08:13:13;101717.39;;;17.69;38.18
39954;BME280;25631;51.516;-0.470;2022-07-23T08:15:50;101712.90;;;17.96;38.46
39954;BME280;25631;51.516;-0.470;2022-07-23T08:18:26;101709.84;;;17.83;38.36
39954;BME280;25631;51.516;-0.470;2022-07-23T08:21:03;101706.38;;;17.54;38.52
39954;BME280;25631;51.516;-0.470;2022-07-23T08:23:39;101701.33;;;17.70;38.58
39954;BME280;25631;51.516;-0.470;2022-07-23T08:26:16;101703.96;;;17.76;38.34
39954;BME280;25631;51.516;-0.470;2022-07-23T08:28:52;101701.79;;;17.61;38.22
39954;BME280;25631;51.516;-0.470;2022-07-23T08:31:29;101705.22;;;17.55;38.35
39954;BME280;25631;51.516;-0.470;2022-07-23T08:34:05;101704.99;;;17.36;38.37
39954;BME280;25631;51.516;-0.470;2022-07-23T08:36:41;101707.67;;;18.12;38.20
39954;BME280;25631;51.516;-0.470;2022-07-23T08:39:18;101703.55;;;17.13;38.24
39954;BME280;25631;51.516;-0.470;2022-07-23T08:41:54;101700.63;;;17.84;38.10
39954;BME280;25631;51.516;-0.470;2022-07-23T08:44:31;101700.30;;;17.96;37.29
39954;BME280;25631;51.516;-0.470;2022-07-23T08:47:07;101699.76;;;17.94;37.17
39954;BME280;25631;51.516;-0.470;2022-07-23T08:49:45;101698.84;;;18.09;37.06
39954;BME280;25631;51.516;-0.470;2022-07-23T08:52:22;101697.00;;;18.07;36.66
39954;BME280;25631;51.516;-0.470;2022-07-23T08:54:59;101696.42;;;18.30;36.08
39954;BME280;25631;51.516;-0.470;2022-07-23T08:57:36;101700.52;;;18.27;35.40
39954;BME280;25631;51.516;-0.470;2022-07-23T09:00:14;101702.81;;;18.32;34.31
39954;BME280;25631;51.516;-0.470;2022-07-23T09:02:51;101703.90;;;18.41;33.65
39954;BME280;25631;51.516;-0.470;2022-07-23T09:05:28;101699.38;;;18.41;33.01
39954;BME280;25631;51.516;-0.470;2022-07-23T09:08:07;101705.85;;;18.48;33.09
39954;BME280;25631;51.516;-0.470;2022-07-23T09:10:46;101702.35;;;18.57;32.78
39954;BME280;25631;51.516;-0.470;2022-07-23T09:13:26;101699.83;;;18.56;32.54
39954;BME280;25631;51.516;-0.470;2022-07-23T09:16:07;101690.85;;;18.38;32.25
39954;BME280;25631;51.516;-0.470;2022-07-23T09:18:46;101696.98;;;18.74;31.41
39954;BME280;25631;51.516;-0.470;2022-07-23T09:21:25;101693.07;;;19.10;31.84
39954;BME280;25631;51.516;-0.470;2022-07-23T09:24:03;101695.68;;;19.00;31.49
39954;BME280;25631;51.516;-0.470;2022-07-23T09:26:41;101698.44;;;18.93;30.70
39954;BME280;25631;51.516;-0.470;2022-07-23T09:29:20;101692.68;;;18.95;30.28
39954;BME280;25631;51.516;-0.470;2022-07-23T09:31:58;101693.87;;;19.12;30.07
39954;BME280;25631;51.516;-0.470;2022-07-23T09:34:36;101694.64;;;19.14;30.84
39954;BME280;25631;51.516;-0.470;2022-07-23T09:37:14;101695.26;;;19.00;30.30
39954;BME280;25631;51.516;-0.470;2022-07-23T09:39:51;101704.55;;;18.92;29.70
39954;BME280;25631;51.516;-0.470;2022-07-23T09:42:27;101700.67;;;19.30;29.63
39954;BME280;25631;51.516;-0.470;2022-07-23T09:45:06;101700.62;;;18.85;29.51
39954;BME280;25631;51.516;-0.470;2022-07-23T09:47:46;101699.66;;;18.97;29.48
39954;BME280;25631;51.516;-0.470;2022-07-23T09:50:23;101698.81;;;19.40;29.24
39954;BME280;25631;51.516;-0.470;2022-07-23T09:52:59;101694.07;;;19.31;29.00
39954;BME280;25631;51.516;-0.470;2022-07-23T09:55:36;101687.57;;;19.59;28.72
39954;BME280;25631;51.516;-0.470;2022-07-23T09:58:13;101688.15;;;19.77;28.03
39954;BME280;25631;51.516;-0.470;2022-07-23T10:00:50;101685.92;;;19.56;28.05
39954;BME280;25631;51.516;-0.470;2022-07-23T10:03:26;101689.34;;;19.57;27.59
39954;BME280;25631;51.516;-0.470;2022-07-23T10:06:03;101696.91;;;19.57;27.69
39954;BME280;25631;51.516;-0.470;2022-07-23T10:08:41;101698.84;;;19.61;27.03
39954;BME280;25631;51.516;-0.470;2022-07-23T10:11:18;101699.30;;;19.69;26.89
39954;BME280;25631;51.516;-0.470;2022-07-23T10:13:54;101696.78;;;19.64;27.17
39954;BME280;25631;51.516;-0.470;2022-07-23T10:16:31;101700.20;;;19.84;27.28
39954;BME280;25631;51.516;-0.470;2022-07-23T10:19:08;101697.31;;;19.72;27.11
39954;BME280;25631;51.516;-0.470;2022-07-23T10:21:48;101693.03;;;19.79;27.18
39954;BME280;25631;51.516;-0.470;2022-07-23T10:24:39;101689.23;;;19.75;26.92
39954;BME280;25631;51.516;-0.470;2022-07-23T10:27:38;101694.62;;;20.15;26.64
39954;BME280;25631;51.516;-0.470;2022-07-23T10:30:25;101692.10;;;20.32;26.41
39954;BME280;25631;51.516;-0.470;2022-07-23T10:33:17;101684.91;;;20.61;26.20
39954;BME280;25631;51.516;-0.470;2022-07-23T10:36:02;101688.13;;;20.60;26.57
39954;BME280;25631;51.516;-0.470;2022-07-23T10:38:49;101691.84;;;20.44;26.52
39954;BME280;25631;51.516;-0.470;2022-07-23T10:41:31;101692.55;;;20.77;26.41
39954;BME280;25631;51.516;-0.470;2022-07-23T10:44:10;101689.47;;;20.27;26.64
39954;BME280;25631;51.516;-0.470;2022-07-23T10:46:57;101680.97;;;20.21;26.72
39954;BME280;25631;51.516;-0.470;2022-07-23T10:49:34;101673.16;;;20.71;26.62
39954;BME280;25631;51.516;-0.470;2022-07-23T10:52:20;101681.73;;;20.56;26.48
39954;BME280;25631;51.516;-0.470;2022-07-23T10:55:40;101679.70;;;20.93;26.36
39954;BME280;25631;51.516;-0.470;2022-07-23T10:58:22;101678.64;;;21.31;25.73
39954;BME280;25631;51.516;-0.470;2022-07-23T11:01:00;101677.65;;;20.95;25.95
39954;BME280;25631;51.516;-0.470;2022-07-23T11:03:37;101678.57;;;21.20;26.13
39954;BME280;25631;51.516;-0.470;2022-07-23T11:06:13;101688.05;;;21.18;26.20
39954;BME280;25631;51.516;-0.470;2022-07-23T11:09:23;101683.15;;;21.13;25.79
39954;BME280;25631;51.516;-0.470;2022-07-23T11:12:35;101682.86;;;21.29;25.62
39954;BME280;25631;51.516;-0.470;2022-07-23T11:15:13;101681.13;;;21.22;25.48
39954;BME280;25631;51.516;-0.470;2022-07-23T11:17:59;101676.77;;;21.38;25.28
39954;BME280;25631;51.516;-0.470;2022-07-23T11:20:36;101670.03;;;21.46;25.27
39954;BME280;25631;51.516;-0.470;2022-07-23T11:23:12;101676.59;;;21.44;25.41
39954;BME280;25631;51.516;-0.470;2022-07-23T11:25:49;101672.87;;;21.56;25.09
39954;BME280;25631;51.516;-0.470;2022-07-23T11:28:25;101671.64;;;21.59;24.72
39954;BME280;25631;51.516;-0.470;2022-07-23T11:31:17;101665.05;;;21.91;24.65
39954;BME280;25631;51.516;-0.470;2022-07-23T11:34:24;101665.62;;;21.60;24.66
39954;BME280;25631;51.516;-0.470;2022-07-23T11:37:06;101665.85;;;22.15;24.52
39954;BME280;25631;51.516;-0.470;2022-07-23T11:39:46;101661.71;;;22.38;24.22
39954;BME280;25631;51.516;-0.470;2022-07-23T11:42:23;101653.92;;;22.67;23.94
39954;BME280;25631;51.516;-0.470;2022-07-23T11:44:59;101648.76;;;22.41;23.66
39954;BME280;25631;51.516;-0.470;2022-07-23T11:47:36;101650.91;;;22.51;23.51
39954;BME280;25631;51.516;-0.470;2022-07-23T11:50:12;101649.98;;;22.61;23.28
39954;BME280;25631;51.516;-0.470;2022-07-23T11:52:49;101641.32;;;22.86;23.00
39954;BME280;25631;51.516;-0.470;2022-07-23T11:55:25;101644.09;;;22.58;23.28
39954;BME280;25631;51.516;-0.470;2022-07-23T11:58:02;101644.31;;;23.04;23.21
39954;BME280;25631;51.516;-0.470;2022-07-23T12:00:41;101642.15;;;23.40;23.42
39954;BME280;25631;51.516;-0.470;2022-07-23T12:03:17;101640.56;;;23.44;23.68
39954;BME280;25631;51.516;-0.470;2022-07-23T12:05:56;101641.32;;;23.08;23.82
39954;BME280;25631;51.516;-0.470;2022-07-23T12:08:41;101639.73;;;23.29;23.75
39954;BME280;25631;51.516;-0.470;2022-07-23T12:11:17;101640.37;;;23.57;23.40
39954;BME280;25631;51.516;-0.470;2022-07-23T12:13:56;101639.48;;;23.70;23.57
39954;BME280;25631;51.516;-0.470;2022-07-23T12:16:33;101641.27;;;23.43;23.45
39954;BME280;25631;51.516;-0.470;2022-07-23T12:19:09;101642.10;;;23.57;23.49
39954;BME280;25631;51.516;-0.470;2022-07-23T12:21:46;101630.01;;;23.44;23.53
39954;BME280;25631;51.516;-0.470;2022-07-23T12:24:22;101630.66;;;23.86;23.34
39954;BME280;25631;51.516;-0.470;2022-07-23T12:27:14;101633.72;;;24.04;23.38
39954;BME280;25631;51.516;-0.470;2022-07-23T12:29:51;101634.94;;;24.15;23.31
39954;BME280;25631;51.516;-0.470;2022-07-23T12:32:29;101632.76;;;24.27;23.31
39954;BME280;25631;51.516;-0.470;2022-07-23T12:35:08;101631.03;;;24.28;23.28
39954;BME280;25631;51.516;-0.470;2022-07-23T12:37:46;101630.38;;;24.13;23.68
39954;BME280;25631;51.516;-0.470;2022-07-23T12:40:25;101623.46;;;24.35;23.73
39954;BME280;25631;51.516;-0.470;2022-07-23T12:43:04;101625.98;;;24.20;24.14
39954;BME280;25631;51.516;-0.470;2022-07-23T12:45:45;101622.16;;;24.12;24.14
39954;BME280;25631;51.516;-0.470;2022-07-23T12:48:25;101618.02;;;24.66;24.28
39954;BME280;25631;51.516;-0.470;2022-07-23T12:51:04;101619.91;;;24.60;24.11
39954;BME280;25631;51.516;-0.470;2022-07-23T12:53:42;101618.37;;;24.63;23.68
39954;BME280;25631;51.516;-0.470;2022-07-23T12:56:26;101608.47;;;24.81;24.31
39954;BME280;25631;51.516;-0.470;2022-07-23T12:59:06;101605.93;;;24.75;24.07
39954;BME280;25631;51.516;-0.470;2022-07-23T13:01:45;101598.18;;;25.16;24.00
39954;BME280;25631;51.516;-0.470;2022-07-23T13:04:22;101597.69;;;25.45;23.96
39954;BME280;25631;51.516;-0.470;2022-07-23T13:07:00;101592.56;;;25.40;23.91
39954;BME280;25631;51.516;-0.470;2022-07-23T13:09:36;101587.10;;;25.12;23.47
39954;BME280;25631;51.516;-0.470;2022-07-23T13:12:13;101591.30;;;25.37;23.66
39954;BME280;25631;51.516;-0.470;2022-07-23T13:14:50;101585.15;;;25.62;23.65
39954;BME280;25631;51.516;-0.470;2022-07-23T13:17:26;101582.08;;;25.42;23.39
39954;BME280;25631;51.516;-0.470;2022-07-23T13:20:04;101574.12;;;25.56;23.65
39954;BME280;25631;51.516;-0.470;2022-07-23T13:22:41;101580.94;;;25.16;23.76
39954;BME280;25631;51.516;-0.470;2022-07-23T13:25:17;101586.69;;;25.03;23.88
39954;BME280;25631;51.516;-0.470;2022-07-23T13:27:53;101589.61;;;25.32;23.75
39954;BME280;25631;51.516;-0.470;2022-07-23T13:30:30;101589.10;;;25.29;23.73
39954;BME280;25631;51.516;-0.470;2022-07-23T13:33:07;101582.92;;;25.49;23.80
39954;BME280;25631;51.516;-0.470;2022-07-23T13:35:44;101583.41;;;25.44;24.34